sensor_id;sensor_type;location;lat;lon;timestamp;P1;durP1;ratioP1;P2;durP2;ratioP2
46651;SDS011;32377;52.182;5.398;2022-07-23T00:00:28;7.10;;;4.97;;
46651;SDS011;32377;52.182;5.398;2022-07-23T00:02:54;9.75;;;4.82;;
46651;SDS011;32377;52.182;5.398;2022-07-23T00:05:20;7.07;;;4.88;;
46651;SDS011;32377;52.182;5.398;2022-07-23T00:07:46;7.68;;;4.68;;
46651;SDS011;32377;52.182;5.398;2022-07-23T00:10:11;8.25;;;5.07;;
46651;SDS011;32377;52.182;5.398;2022-07-23T00:12:37;7.25;;;4.95;;
46651;SDS011;32377;52.182;5.398;2022-07-23T00:15:04;9.57;;;5.47;;
46651;SDS011;32377;52.182;5.398;2022-07-23T00:17:31;8.77;;;5.45;;
46651;SDS011;32377;52.182;5.398;2022-07-23T00:19:56;10.88;;;5.20;;
46651;SDS011;32377;52.182;5.398;2022-07-23T00:22:22;7.68;;;4.43;;
46651;SDS011;32377;52.182;5.398;2022-07-23T00:24:48;9.18;;;5.22;;
46651;SDS011;32377;52.182;5.398;2022-07-23T00:27:13;12.25;;;5.22;;
46651;SDS011;32377;52.182;5.398;2022-07-23T00:29:39;7.70;;;4.88;;
46651;SDS011;32377;52.182;5.398;2022-07-23T00:32:04;6.45;;;5.25;;
46651;SDS011;32377;52.182;5.398;2022-07-23T00:34:30;8.75;;;5.43;;
46651;SDS011;32377;52.182;5.398;2022-07-23T00:36:56;8.55;;;4.75;;
46651;SDS011;32377;52.182;5.398;2022-07-23T00:39:21;12.55;;;4.75;;
46651;SDS011;32377;52.182;5.398;2022-07-23T00:41:47;6.05;;;5.00;;
46651;SDS011;32377;52.182;5.398;2022-07-23T00:44:17;10.18;;;5.20;;
46651;SDS011;32377;52.182;5.398;2022-07-23T00:46:48;5.97;;;4.55;;
46651;SDS011;32377;52.182;5.398;2022-07-23T00:49:18;9.02;;;5.20;;
46651;SDS011;32377;52.182;5.398;2022-07-23T00:51:45;6.53;;;5.00;;
46651;SDS011;32377;52.182;5.398;2022-07-23T00:54:10;11.32;;;5.18;;
46651;SDS011;32377;52.182;5.398;2022-07-23T00:56:36;7.68;;;5.13;;
46651;SDS011;32377;52.182;5.398;2022-07-23T00:59:02;10.77;;;4.93;;
46651;SDS011;32377;52.182;5.398;2022-07-23T01:01:28;6.63;;;4.93;;
46651;SDS011;32377;52.182;5.398;2022-07-23T01:03:54;7.43;;;4.68;;
46651;SDS011;32377;52.182;5.398;2022-07-23T01:06:19;7.70;;;4.72;;
46651;SDS011;32377;52.182;5.398;2022-07-23T01:08:45;6.43;;;4.75;;
46651;SDS011;32377;52.182;5.398;2022-07-23T01:11:11;8.27;;;5.18;;
46651;SDS011;32377;52.182;5.398;2022-07-23T01:13:44;7.53;;;5.20;;
46651;SDS011;32377;52.182;5.398;2022-07-23T01:16:10;8.43;;;5.28;;
46651;SDS011;32377;52.182;5.398;2022-07-23T01:18:35;9.93;;;5.78;;
46651;SDS011;32377;52.182;5.398;2022-07-23T01:21:01;10.00;;;5.30;;
46651;SDS011;32377;52.182;5.398;2022-07-23T01:23:27;7.88;;;5.25;;
46651;SDS011;32377;52.182;5.398;2022-07-23T01:25:53;10.40;;;5.65;;
46651;SDS011;32377;52.182;5.398;2022-07-23T01:28:20;11.95;;;5.32;;
46651;SDS011;32377;52.182;5.398;2022-07-23T01:30:46;11.75;;;6.38;;
46651;SDS011;32377;52.182;5.398;2022-07-23T01:33:12;9.35;;;6.53;;
46651;SDS011;32377;52.182;5.398;2022-07-23T01:35:38;11.38;;;6.05;;
46651;SDS011;32377;52.182;5.398;2022-07-23T01:38:03;9.70;;;6.10;;
46651;SDS011;32377;52.182;5.398;2022-07-23T01:40:29;10.80;;;5.50;;
46651;SDS011;32377;52.182;5.398;2022-07-23T01:42:55;8.82;;;5.85;;
46651;SDS011;32377;52.182;5.398;2022-07-23T01:45:20;8.18;;;5.43;;
46651;SDS011;32377;52.182;5.398;2022-07-23T01:47:46;8.30;;;5.32;;
46651;SDS011;32377;52.182;5.398;2022-07-23T01:50:13;8.82;;;5.82;;
46651;SDS011;32377;52.182;5.398;2022-07-23T01:52:38;7.30;;;5.45;;
46651;SDS011;32377;52.182;5.398;2022-07-23T01:55:04;7.65;;;5.25;;
46651;SDS011;32377;52.182;5.398;2022-07-23T01:57:30;10.25;;;6.07;;
46651;SDS011;32377;52.182;5.398;2022-07-23T01:59:56;9.45;;;5.50;;
46651;SDS011;32377;52.182;5.398;2022-07-23T02:02:22;10.30;;;6.13;;
46651;SDS011;32377;52.182;5.398;2022-07-23T02:04:48;10.75;;;5.90;;
46651;SDS011;32377;52.182;5.398;2022-07-23T02:07:13;9.35;;;5.88;;
46651;SDS011;32377;52.182;5.398;2022-07-23T02:09:39;7.97;;;5.90;;
46651;SDS011;32377;52.182;5.398;2022-07-23T02:12:04;10.15;;;5.40;;
46651;SDS011;32377;52.182;5.398;2022-07-23T02:14:30;10.88;;;6.40;;
46651;SDS011;32377;52.182;5.398;2022-07-23T02:16:56;7.88;;;5.68;;
46651;SDS011;32377;52.182;5.398;2022-07-23T02:19:21;9.50;;;5.82;;
46651;SDS011;32377;52.182;5.398;2022-07-23T02:21:47;8.13;;;6.28;;
46651;SDS011;32377;52.182;5.398;2022-07-23T02:24:12;14.63;;;6.82;;
46651;SDS011;32377;52.182;5.398;2022-07-23T02:26:38;9.18;;;6.45;;
46651;SDS011;32377;52.182;5.398;2022-07-23T02:29:04;8.43;;;5.80;;
46651;SDS011;32377;52.182;5.398;2022-07-23T02:31:30;8.65;;;6.78;;
46651;SDS011;32377;52.182;5.398;2022-07-23T02:33:56;9.00;;;6.35;;
46651;SDS011;32377;52.182;5.398;2022-07-23T02:36:22;8.65;;;6.47;;
46651;SDS011;32377;52.182;5.398;2022-07-23T02:38:48;7.63;;;6.60;;
46651;SDS011;32377;52.182;5.398;2022-07-23T02:41:14;9.50;;;7.22;;
46651;SDS011;32377;52.182;5.398;2022-07-23T02:43:40;11.07;;;6.93;;
46651;SDS011;32377;52.182;5.398;2022-07-23T02:46:05;9.25;;;7.60;;
46651;SDS011;32377;52.182;5.398;2022-07-23T02:48:31;12.07;;;8.23;;
46651;SDS011;32377;52.182;5.398;2022-07-23T02:50:56;11.57;;;8.30;;
46651;SDS011;32377;52.182;5.398;2022-07-23T02:53:22;11.60;;;8.55;;
46651;SDS011;32377;52.182;5.398;2022-07-23T02:55:48;17.58;;;8.40;;
46651;SDS011;32377;52.182;5.398;2022-07-23T02:58:14;14.40;;;9.80;;
46651;SDS011;32377;52.182;5.398;2022-07-23T03:00:40;11.45;;;8.65;;
46651;SDS011;32377;52.182;5.398;2022-07-23T03:03:05;13.50;;;8.77;;
46651;SDS011;32377;52.182;5.398;2022-07-23T03:05:32;13.25;;;8.88;;
46651;SDS011;32377;52.182;5.398;2022-07-23T03:07:58;12.57;;;8.95;;
46651;SDS011;32377;52.182;5.398;2022-07-23T03:10:24;13.00;;;8.80;;
46651;SDS011;32377;52.182;5.398;2022-07-23T03:12:49;13.32;;;9.13;;
46651;SDS011;32377;52.182;5.398;2022-07-23T03:15:15;14.07;;;9.25;;
46651;SDS011;32377;52.182;5.398;2022-07-23T03:17:41;16.00;;;9.25;;
46651;SDS011;32377;52.182;5.398;2022-07-23T03:20:06;11.68;;;8.73;;
46651;SDS011;32377;52.182;5.398;2022-07-23T03:22:33;12.88;;;9.25;;
46651;SDS011;32377;52.182;5.398;2022-07-23T03:24:58;14.57;;;9.40;;
46651;SDS011;32377;52.182;5.398;2022-07-23T03:27:24;13.88;;;9.70;;
46651;SDS011;32377;52.182;5.398;2022-07-23T03:29:52;15.10;;;9.20;;
46651;SDS011;32377;52.182;5.398;2022-07-23T03:32:19;12.32;;;8.75;;
46651;SDS011;32377;52.182;5.398;2022-07-23T03:34:45;13.73;;;8.65;;
46651;SDS011;32377;52.182;5.398;2022-07-23T03:37:11;14.57;;;9.02;;
46651;SDS011;32377;52.182;5.398;2022-07-23T03:39:37;11.40;;;8.32;;
46651;SDS011;32377;52.182;5.398;2022-07-23T03:42:02;12.88;;;9.57;;
46651;SDS011;32377;52.182;5.398;2022-07-23T03:44:28;14.35;;;8.63;;
46651;SDS011;32377;52.182;5.398;2022-07-23T03:46:54;12.50;;;9.15;;
46651;SDS011;32377;52.182;5.398;2022-07-23T03:49:20;14.90;;;8.40;;
46651;SDS011;32377;52.182;5.398;2022-07-23T03:51:45;11.40;;;8.55;;
46651;SDS011;32377;52.182;5.398;2022-07-23T03:54:11;11.98;;;8.02;;
46651;SDS011;32377;52.182;5.398;2022-07-23T03:56:37;12.52;;;8.43;;
46651;SDS011;32377;52.182;5.398;2022-07-23T03:59:02;11.68;;;7.85;;
46651;SDS011;32377;52.182;5.398;2022-07-23T04:01:28;11.15;;;7.95;;
46651;SDS011;32377;52.182;5.398;2022-07-23T04:03:53;17.63;;;8.15;;
46651;SDS011;32377;52.182;5.398;2022-07-23T04:06:19;13.63;;;8.93;;
46651;SDS011;32377;52.182;5.398;2022-07-23T04:08:44;13.95;;;8.18;;
46651;SDS011;32377;52.182;5.398;2022-07-23T04:11:10;13.35;;;8.02;;
46651;SDS011;32377;52.182;5.398;2022-07-23T04:13:36;13.40;;;7.97;;
46651;SDS011;32377;52.182;5.398;2022-07-23T04:16:01;14.30;;;7.95;;
46651;SDS011;32377;52.182;5.398;2022-07-23T04:18:28;12.00;;;8.57;;
46651;SDS011;32377;52.182;5.398;2022-07-23T04:20:53;13.40;;;8.27;;
46651;SDS011;32377;52.182;5.398;2022-07-23T04:23:19;12.63;;;8.38;;
46651;SDS011;32377;52.182;5.398;2022-07-23T04:25:45;11.93;;;8.73;;
46651;SDS011;32377;52.182;5.398;2022-07-23T04:28:11;12.13;;;7.97;;
46651;SDS011;32377;52.182;5.398;2022-07-23T04:30:36;10.02;;;8.48;;
46651;SDS011;32377;52.182;5.398;2022-07-23T04:33:02;12.48;;;8.35;;
46651;SDS011;32377;52.182;5.398;2022-07-23T04:35:31;16.48;;;9.40;;
46651;SDS011;32377;52.182;5.398;2022-07-23T04:37:58;12.85;;;7.68;;
46651;SDS011;32377;52.182;5.398;2022-07-23T04:40:24;12.57;;;7.32;;
46651;SDS011;32377;52.182;5.398;2022-07-23T04:42:50;14.85;;;8.23;;
46651;SDS011;32377;52.182;5.398;2022-07-23T04:45:15;11.05;;;7.47;;
46651;SDS011;32377;52.182;5.398;2022-07-23T04:47:41;13.07;;;8.07;;
46651;SDS011;32377;52.182;5.398;2022-07-23T04:50:06;15.85;;;8.50;;
46651;SDS011;32377;52.182;5.398;2022-07-23T04:52:32;11.60;;;8.32;;
46651;SDS011;32377;52.182;5.398;2022-07-23T04:54:58;10.73;;;8.25;;
46651;SDS011;32377;52.182;5.398;2022-07-23T04:57:24;12.18;;;7.97;;
46651;SDS011;32377;52.182;5.398;2022-07-23T04:59:49;12.57;;;8.23;;
46651;SDS011;32377;52.182;5.398;2022-07-23T05:02:15;13.50;;;7.90;;
46651;SDS011;32377;52.182;5.398;2022-07-23T05:04:40;11.52;;;7.65;;
46651;SDS011;32377;52.182;5.398;2022-07-23T05:07:06;15.23;;;7.93;;
46651;SDS011;32377;52.182;5.398;2022-07-23T05:09:31;14.60;;;8.48;;
46651;SDS011;32377;52.182;5.398;2022-07-23T05:11:57;10.60;;;7.60;;
46651;SDS011;32377;52.182;5.398;2022-07-23T05:14:23;15.23;;;7.80;;
46651;SDS011;32377;52.182;5.398;2022-07-23T05:16:48;12.10;;;8.23;;
46651;SDS011;32377;52.182;5.398;2022-07-23T05:19:14;12.05;;;7.65;;
46651;SDS011;32377;52.182;5.398;2022-07-23T05:21:39;12.07;;;7.40;;
46651;SDS011;32377;52.182;5.398;2022-07-23T05:24:05;9.63;;;7.28;;
46651;SDS011;32377;52.182;5.398;2022-07-23T05:26:31;12.07;;;7.20;;
46651;SDS011;32377;52.182;5.398;2022-07-23T05:28:56;10.63;;;7.03;;
46651;SDS011;32377;52.182;5.398;2022-07-23T05:31:22;10.48;;;6.70;;
46651;SDS011;32377;52.182;5.398;2022-07-23T05:33:47;10.15;;;7.03;;
46651;SDS011;32377;52.182;5.398;2022-07-23T05:36:13;10.95;;;6.32;;
46651;SDS011;32377;52.182;5.398;2022-07-23T05:38:39;12.82;;;6.40;;
46651;SDS011;32377;52.182;5.398;2022-07-23T05:41:04;10.05;;;6.70;;
46651;SDS011;32377;52.182;5.398;2022-07-23T05:43:30;11.80;;;5.78;;
46651;SDS011;32377;52.182;5.398;2022-07-23T05:45:56;8.27;;;6.22;;
46651;SDS011;32377;52.182;5.398;2022-07-23T05:48:21;10.38;;;6.20;;
46651;SDS011;32377;52.182;5.398;2022-07-23T05:50:47;8.30;;;5.60;;
46651;SDS011;32377;52.182;5.398;2022-07-23T05:53:13;7.25;;;5.32;;
46651;SDS011;32377;52.182;5.398;2022-07-23T05:55:38;9.38;;;5.07;;
46651;SDS011;32377;52.182;5.398;2022-07-23T05:58:04;9.98;;;4.97;;
46651;SDS011;32377;52.182;5.398;2022-07-23T06:00:30;8.75;;;4.97;;
46651;SDS011;32377;52.182;5.398;2022-07-23T06:02:56;10.07;;;5.50;;
46651;SDS011;32377;52.182;5.398;2022-07-23T06:05:21;10.75;;;5.05;;
46651;SDS011;32377;52.182;5.398;2022-07-23T06:07:47;10.63;;;5.32;;
46651;SDS011;32377;52.182;5.398;2022-07-23T06:10:13;9.18;;;5.10;;
46651;SDS011;32377;52.182;5.398;2022-07-23T06:12:38;6.35;;;4.20;;
46651;SDS011;32377;52.182;5.398;2022-07-23T06:15:04;10.43;;;5.10;;
46651;SDS011;32377;52.182;5.398;2022-07-23T06:17:30;9.70;;;5.20;;
46651;SDS011;32377;52.182;5.398;2022-07-23T06:19:56;6.60;;;4.63;;
46651;SDS011;32377;52.182;5.398;2022-07-23T06:22:22;7.43;;;3.92;;
46651;SDS011;32377;52.182;5.398;2022-07-23T06:24:48;8.45;;;3.90;;
46651;SDS011;32377;52.182;5.398;2022-07-23T06:27:14;6.72;;;3.70;;
46651;SDS011;32377;52.182;5.398;2022-07-23T06:29:39;5.90;;;3.90;;
46651;SDS011;32377;52.182;5.398;2022-07-23T06:32:05;6.13;;;3.53;;
46651;SDS011;32377;52.182;5.398;2022-07-23T06:34:31;6.82;;;3.78;;
46651;SDS011;32377;52.182;5.398;2022-07-23T06:36:57;8.35;;;4.15;;
46651;SDS011;32377;52.182;5.398;2022-07-23T06:39:23;7.20;;;3.63;;
46651;SDS011;32377;52.182;5.398;2022-07-23T06:41:49;7.10;;;3.60;;
46651;SDS011;32377;52.182;5.398;2022-07-23T06:44:14;10.82;;;4.10;;
46651;SDS011;32377;52.182;5.398;2022-07-23T06:46:40;5.72;;;2.55;;
46651;SDS011;32377;52.182;5.398;2022-07-23T06:49:05;7.30;;;3.22;;
46651;SDS011;32377;52.182;5.398;2022-07-23T06:51:31;5.50;;;3.38;;
46651;SDS011;32377;52.182;5.398;2022-07-23T06:53:57;6.82;;;3.65;;
46651;SDS011;32377;52.182;5.398;2022-07-23T06:56:23;6.43;;;3.05;;
46651;SDS011;32377;52.182;5.398;2022-07-23T06:58:49;5.15;;;2.80;;
46651;SDS011;32377;52.182;5.398;2022-07-23T07:01:14;4.57;;;2.50;;
46651;SDS011;32377;52.182;5.398;2022-07-23T07:03:40;3.33;;;1.48;;
46651;SDS011;32377;52.182;5.398;2022-07-23T07:06:05;5.00;;;2.03;;
46651;SDS011;32377;52.182;5.398;2022-07-23T07:08:31;3.08;;;1.98;;
46651;SDS011;32377;52.182;5.398;2022-07-23T07:10:56;3.90;;;1.95;;
46651;SDS011;32377;52.182;5.398;2022-07-23T07:13:22;4.07;;;2.33;;
46651;SDS011;32377;52.182;5.398;2022-07-23T07:15:48;4.90;;;2.33;;
46651;SDS011;32377;52.182;5.398;2022-07-23T07:18:13;6.82;;;2.33;;
46651;SDS011;32377;52.182;5.398;2022-07-23T07:20:39;5.55;;;2.47;;
46651;SDS011;32377;52.182;5.398;2022-07-23T07:23:04;4.60;;;2.20;;
46651;SDS011;32377;52.182;5.398;2022-07-23T07:25:30;5.35;;;2.90;;
46651;SDS011;32377;52.182;5.398;2022-07-23T07:27:56;7.63;;;2.75;;
46651;SDS011;32377;52.182;5.398;2022-07-23T07:30:21;5.28;;;2.60;;
46651;SDS011;32377;52.182;5.398;2022-07-23T07:32:47;4.93;;;2.28;;
46651;SDS011;32377;52.182;5.398;2022-07-23T07:35:12;3.40;;;2.30;;
46651;SDS011;32377;52.182;5.398;2022-07-23T07:37:38;4.97;;;2.55;;
46651;SDS011;32377;52.182;5.398;2022-07-23T07:40:04;5.40;;;2.33;;
46651;SDS011;32377;52.182;5.398;2022-07-23T07:42:29;5.85;;;2.30;;
46651;SDS011;32377;52.182;5.398;2022-07-23T07:44:57;3.88;;;2.00;;
46651;SDS011;32377;52.182;5.398;2022-07-23T07:47:22;3.03;;;1.60;;
46651;SDS011;32377;52.182;5.398;2022-07-23T07:49:48;3.53;;;2.40;;
46651;SDS011;32377;52.182;5.398;2022-07-23T07:52:13;4.43;;;1.77;;
46651;SDS011;32377;52.182;5.398;2022-07-23T07:54:39;3.25;;;2.08;;
46651;SDS011;32377;52.182;5.398;2022-07-23T07:57:05;3.42;;;1.90;;
46651;SDS011;32377;52.182;5.398;2022-07-23T07:59:30;3.75;;;2.30;;
46651;SDS011;32377;52.182;5.398;2022-07-23T08:01:56;7.45;;;2.30;;
46651;SDS011;32377;52.182;5.398;2022-07-23T08:04:22;3.63;;;2.17;;
46651;SDS011;32377;52.182;5.398;2022-07-23T08:06:47;5.22;;;1.95;;
46651;SDS011;32377;52.182;5.398;2022-07-23T08:09:13;2.25;;;1.40;;
46651;SDS011;32377;52.182;5.398;2022-07-23T08:11:38;2.85;;;1.35;;
46651;SDS011;32377;52.182;5.398;2022-07-23T08:14:04;4.72;;;1.65;;
46651;SDS011;32377;52.182;5.398;2022-07-23T08:16:30;3.63;;;1.60;;
46651;SDS011;32377;52.182;5.398;2022-07-23T08:18:56;3.80;;;1.90;;
46651;SDS011;32377;52.182;5.398;2022-07-23T08:21:21;3.70;;;1.70;;
46651;SDS011;32377;52.182;5.398;2022-07-23T08:23:47;3.55;;;1.50;;
46651;SDS011;32377;52.182;5.398;2022-07-23T08:26:13;3.50;;;1.60;;
46651;SDS011;32377;52.182;5.398;2022-07-23T08:28:38;5.30;;;2.05;;
46651;SDS011;32377;52.182;5.398;2022-07-23T08:31:04;2.88;;;1.52;;
46651;SDS011;32377;52.182;5.398;2022-07-23T08:33:30;4.55;;;2.00;;
46651;SDS011;32377;52.182;5.398;2022-07-23T08:35:56;4.07;;;1.95;;
46651;SDS011;32377;52.182;5.398;2022-07-23T08:38:23;4.80;;;2.15;;
46651;SDS011;32377;52.182;5.398;2022-07-23T08:40:51;4.82;;;2.45;;
46651;SDS011;32377;52.182;5.398;2022-07-23T08:43:18;3.15;;;1.90;;
46651;SDS011;32377;52.182;5.398;2022-07-23T08:45:47;6.05;;;2.10;;
46651;SDS011;32377;52.182;5.398;2022-07-23T08:48:18;3.88;;;1.63;;
46651;SDS011;32377;52.182;5.398;2022-07-23T08:50:47;5.20;;;1.83;;
46651;SDS011;32377;52.182;5.398;2022-07-23T08:53:15;2.25;;;1.55;;
46651;SDS011;32377;52.182;5.398;2022-07-23T08:55:52;4.18;;;1.48;;
46651;SDS011;32377;52.182;5.398;2022-07-23T08:58:20;3.40;;;1.80;;
46651;SDS011;32377;52.182;5.398;2022-07-23T09:00:46;2.83;;;1.58;;
46651;SDS011;32377;52.182;5.398;2022-07-23T09:03:22;3.75;;;1.80;;
46651;SDS011;32377;52.182;5.398;2022-07-23T09:05:50;4.35;;;2.28;;
46651;SDS011;32377;52.182;5.398;2022-07-23T09:08:17;4.03;;;1.90;;
46651;SDS011;32377;52.182;5.398;2022-07-23T09:13:24;5.00;;;2.05;;
46651;SDS011;32377;52.182;5.398;2022-07-23T09:15:58;5.28;;;2.00;;
46651;SDS011;32377;52.182;5.398;2022-07-23T09:18:34;2.65;;;1.63;;
46651;SDS011;32377;52.182;5.398;2022-07-23T09:21:38;3.28;;;1.67;;
46651;SDS011;32377;52.182;5.398;2022-07-23T09:26:27;5.95;;;1.90;;
46651;SDS011;32377;52.182;5.398;2022-07-23T09:29:01;3.42;;;1.83;;
46651;SDS011;32377;52.182;5.398;2022-07-23T09:31:32;3.60;;;1.73;;
46651;SDS011;32377;52.182;5.398;2022-07-23T09:34:06;4.72;;;1.63;;
46651;SDS011;32377;52.182;5.398;2022-07-23T09:36:36;3.33;;;1.75;;
46651;SDS011;32377;52.182;5.398;2022-07-23T09:39:02;2.42;;;1.60;;
46651;SDS011;32377;52.182;5.398;2022-07-23T09:41:39;3.00;;;1.58;;
46651;SDS011;32377;52.182;5.398;2022-07-23T09:44:07;4.07;;;1.42;;
46651;SDS011;32377;52.182;5.398;2022-07-23T09:46:38;1.90;;;1.30;;
46651;SDS011;32377;52.182;5.398;2022-07-23T09:54:26;4.35;;;1.60;;
46651;SDS011;32377;52.182;5.398;2022-07-23T09:56:57;2.90;;;1.20;;
46651;SDS011;32377;52.182;5.398;2022-07-23T09:59:25;2.83;;;1.17;;
46651;SDS011;32377;52.182;5.398;2022-07-23T10:01:53;2.67;;;1.10;;
46651;SDS011;32377;52.182;5.398;2022-07-23T10:04:21;3.22;;;1.27;;
46651;SDS011;32377;52.182;5.398;2022-07-23T10:06:50;3.22;;;1.35;;
46651;SDS011;32377;52.182;5.398;2022-07-23T10:09:18;4.32;;;1.38;;
46651;SDS011;32377;52.182;5.398;2022-07-23T10:11:48;2.45;;;1.02;;
46651;SDS011;32377;52.182;5.398;2022-07-23T10:14:15;3.75;;;1.35;;
46651;SDS011;32377;52.182;5.398;2022-07-23T10:16:41;3.83;;;1.05;;
46651;SDS011;32377;52.182;5.398;2022-07-23T10:19:07;2.00;;;1.02;;
46651;SDS011;32377;52.182;5.398;2022-07-23T10:21:37;1.65;;;1.02;;
46651;SDS011;32377;52.182;5.398;2022-07-23T10:24:16;5.68;;;1.42;;
46651;SDS011;32377;52.182;5.398;2022-07-23T10:32:20;3.80;;;1.45;;
46651;SDS011;32377;52.182;5.398;2022-07-23T10:35:07;4.15;;;1.40;;
46651;SDS011;32377;52.182;5.398;2022-07-23T10:37:48;2.70;;;1.58;;
46651;SDS011;32377;52.182;5.398;2022-07-23T10:40:17;3.00;;;1.50;;
46651;SDS011;32377;52.182;5.398;2022-07-23T10:42:45;2.58;;;1.30;;
46651;SDS011;32377;52.182;5.398;2022-07-23T10:48:11;1.92;;;1.38;;
46651;SDS011;32377;52.182;5.398;2022-07-23T10:50:39;3.78;;;1.60;;
46651;SDS011;32377;52.182;5.398;2022-07-23T10:53:15;1.98;;;1.50;;
46651;SDS011;32377;52.182;5.398;2022-07-23T10:55:49;4.30;;;1.38;;
46651;SDS011;32377;52.182;5.398;2022-07-23T11:00:43;2.10;;;1.40;;
46651;SDS011;32377;52.182;5.398;2022-07-23T11:03:27;4.25;;;1.65;;
46651;SDS011;32377;52.182;5.398;2022-07-23T11:05:54;4.28;;;1.40;;
46651;SDS011;32377;52.182;5.398;2022-07-23T11:08:20;2.55;;;1.30;;
46651;SDS011;32377;52.182;5.398;2022-07-23T11:16:12;3.40;;;1.52;;
46651;SDS011;32377;52.182;5.398;2022-07-23T11:24:09;5.43;;;1.67;;
46651;SDS011;32377;52.182;5.398;2022-07-23T11:26:46;7.60;;;1.77;;
46651;SDS011;32377;52.182;5.398;2022-07-23T11:34:45;3.20;;;1.67;;
46651;SDS011;32377;52.182;5.398;2022-07-23T11:37:19;3.90;;;1.58;;
46651;SDS011;32377;52.182;5.398;2022-07-23T11:39:59;2.13;;;1.30;;
46651;SDS011;32377;52.182;5.398;2022-07-23T11:42:25;1.80;;;1.50;;
46651;SDS011;32377;52.182;5.398;2022-07-23T11:44:51;4.90;;;1.77;;
46651;SDS011;32377;52.182;5.398;2022-07-23T11:47:21;3.35;;;1.70;;
46651;SDS011;32377;52.182;5.398;2022-07-23T11:49:52;4.78;;;1.50;;
46651;SDS011;32377;52.182;5.398;2022-07-23T11:52:18;3.05;;;1.83;;
46651;SDS011;32377;52.182;5.398;2022-07-23T11:54:49;4.22;;;1.98;;
46651;SDS011;32377;52.182;5.398;2022-07-23T11:57:17;3.42;;;1.58;;
46651;SDS011;32377;52.182;5.398;2022-07-23T11:59:43;4.72;;;1.90;;
46651;SDS011;32377;52.182;5.398;2022-07-23T12:02:14;5.13;;;1.85;;
46651;SDS011;32377;52.182;5.398;2022-07-23T12:04:40;2.22;;;1.63;;
46651;SDS011;32377;52.182;5.398;2022-07-23T12:12:54;3.90;;;1.90;;
46651;SDS011;32377;52.182;5.398;2022-07-23T12:15:31;3.47;;;2.00;;
46651;SDS011;32377;52.182;5.398;2022-07-23T12:17:59;2.60;;;1.52;;
46651;SDS011;32377;52.182;5.398;2022-07-23T12:20:47;4.38;;;1.42;;
46651;SDS011;32377;52.182;5.398;2022-07-23T12:23:17;4.40;;;1.83;;
46651;SDS011;32377;52.182;5.398;2022-07-23T12:25:44;3.30;;;1.50;;
46651;SDS011;32377;52.182;5.398;2022-07-23T12:28:12;4.95;;;1.60;;
46651;SDS011;32377;52.182;5.398;2022-07-23T12:30:39;2.92;;;1.67;;
46651;SDS011;32377;52.182;5.398;2022-07-23T12:35:52;2.97;;;2.03;;
46651;SDS011;32377;52.182;5.398;2022-07-23T12:38:22;5.90;;;1.73;;
46651;SDS011;32377;52.182;5.398;2022-07-23T12:40:50;3.42;;;1.48;;
46651;SDS011;32377;52.182;5.398;2022-07-23T12:46:03;4.40;;;2.22;;
46651;SDS011;32377;52.182;5.398;2022-07-23T12:48:34;3.83;;;2.05;;
46651;SDS011;32377;52.182;5.398;2022-07-23T12:53:48;3.03;;;1.75;;
46651;SDS011;32377;52.182;5.398;2022-07-23T12:56:31;7.00;;;2.03;;
46651;SDS011;32377;52.182;5.398;2022-07-23T12:59:03;3.05;;;1.60;;
46651;SDS011;32377;52.182;5.398;2022-07-23T13:01:35;3.28;;;1.80;;
46651;SDS011;32377;52.182;5.398;2022-07-23T13:04:09;3.05;;;1.77;;
46651;SDS011;32377;52.182;5.398;2022-07-23T13:06:37;2.10;;;1.42;;
46651;SDS011;32377;52.182;5.398;2022-07-23T13:09:09;2.67;;;1.90;;
46651;SDS011;32377;52.182;5.398;2022-07-23T13:11:40;3.95;;;1.80;;
46651;SDS011;32377;52.182;5.398;2022-07-23T13:14:06;2.15;;;1.70;;
46651;SDS011;32377;52.182;5.398;2022-07-23T13:16:32;3.88;;;1.90;;
46651;SDS011;32377;52.182;5.398;2022-07-23T13:18:58;4.53;;;1.80;;
46651;SDS011;32377;52.182;5.398;2022-07-23T13:21:26;2.95;;;1.90;;
46651;SDS011;32377;52.182;5.398;2022-07-23T13:23:53;3.08;;;2.00;;
46651;SDS011;32377;52.182;5.398;2022-07-23T13:26:19;3.28;;;2.10;;
46651;SDS011;32377;52.182;5.398;2022-07-23T13:28:45;5.72;;;1.98;;
46651;SDS011;32377;52.182;5.398;2022-07-23T13:31:10;3.53;;;1.80;;
46651;SDS011;32377;52.182;5.398;2022-07-23T13:33:36;3.65;;;1.90;;
46651;SDS011;32377;52.182;5.398;2022-07-23T13:36:02;6.93;;;2.35;;
46651;SDS011;32377;52.182;5.398;2022-07-23T13:38:28;3.90;;;2.30;;
46651;SDS011;32377;52.182;5.398;2022-07-23T13:40:54;8.30;;;2.38;;
46651;SDS011;32377;52.182;5.398;2022-07-23T13:43:21;7.57;;;2.00;;
46651;SDS011;32377;52.182;5.398;2022-07-23T13:45:49;3.28;;;1.60;;
46651;SDS011;32377;52.182;5.398;2022-07-23T13:48:16;3.22;;;2.08;;
46651;SDS011;32377;52.182;5.398;2022-07-23T13:50:44;2.75;;;1.42;;
46651;SDS011;32377;52.182;5.398;2022-07-23T13:53:11;2.83;;;2.05;;
46651;SDS011;32377;52.182;5.398;2022-07-23T13:55:38;5.30;;;1.88;;
46651;SDS011;32377;52.182;5.398;2022-07-23T13:58:04;3.05;;;2.10;;
46651;SDS011;32377;52.182;5.398;2022-07-23T14:00:32;2.90;;;1.80;;
46651;SDS011;32377;52.182;5.398;2022-07-23T14:02:59;4.80;;;1.90;;
46651;SDS011;32377;52.182;5.398;2022-07-23T14:05:25;5.75;;;1.95;;
46651;SDS011;32377;52.182;5.398;2022-07-23T14:07:51;2.50;;;1.40;;
46651;SDS011;32377;52.182;5.398;2022-07-23T14:10:18;3.72;;;2.03;;
46651;SDS011;32377;52.182;5.398;2022-07-23T14:12:45;4.88;;;1.70;;
46651;SDS011;32377;52.182;5.398;2022-07-23T14:15:12;5.47;;;1.70;;
46651;SDS011;32377;52.182;5.398;2022-07-23T14:17:38;3.72;;;2.15;;
46651;SDS011;32377;52.182;5.398;2022-07-23T14:20:05;3.88;;;2.47;;
46651;SDS011;32377;52.182;5.398;2022-07-23T14:22:33;9.45;;;2.03;;
46651;SDS011;32377;52.182;5.398;2022-07-23T14:24:58;3.45;;;1.58;;
46651;SDS011;32377;52.182;5.398;2022-07-23T14:27:25;2.50;;;1.80;;
46651;SDS011;32377;52.182;5.398;2022-07-23T14:29:53;3.15;;;1.90;;
46651;SDS011;32377;52.182;5.398;2022-07-23T14:32:19;6.50;;;2.03;;
46651;SDS011;32377;52.182;5.398;2022-07-23T14:34:46;3.55;;;1.90;;
46651;SDS011;32377;52.182;5.398;2022-07-23T14:37:11;4.68;;;1.98;;
46651;SDS011;32377;52.182;5.398;2022-07-23T14:39:38;4.40;;;1.83;;
46651;SDS011;32377;52.182;5.398;2022-07-23T14:42:05;4.45;;;2.08;;
46651;SDS011;32377;52.182;5.398;2022-07-23T14:44:31;4.43;;;1.90;;
46651;SDS011;32377;52.182;5.398;2022-07-23T14:46:57;2.85;;;2.10;;
46651;SDS011;32377;52.182;5.398;2022-07-23T14:49:24;4.80;;;1.85;;
46651;SDS011;32377;52.182;5.398;2022-07-23T14:51:51;2.45;;;1.70;;
46651;SDS011;32377;52.182;5.398;2022-07-23T14:54:16;3.90;;;2.08;;
46651;SDS011;32377;52.182;5.398;2022-07-23T14:56:42;5.18;;;2.00;;
46651;SDS011;32377;52.182;5.398;2022-07-23T14:59:08;5.57;;;2.00;;
46651;SDS011;32377;52.182;5.398;2022-07-23T15:01:34;5.50;;;1.83;;
46651;SDS011;32377;52.182;5.398;2022-07-23T15:04:00;2.63;;;1.80;;
46651;SDS011;32377;52.182;5.398;2022-07-23T15:06:26;3.63;;;1.77;;
46651;SDS011;32377;52.182;5.398;2022-07-23T15:08:52;5.25;;;2.20;;
46651;SDS011;32377;52.182;5.398;2022-07-23T15:11:17;2.95;;;1.75;;
46651;SDS011;32377;52.182;5.398;2022-07-23T15:13:43;2.45;;;1.77;;
46651;SDS011;32377;52.182;5.398;2022-07-23T15:16:09;2.70;;;1.83;;
46651;SDS011;32377;52.182;5.398;2022-07-23T15:18:34;4.20;;;1.90;;
46651;SDS011;32377;52.182;5.398;2022-07-23T15:21:01;6.60;;;2.30;;
46651;SDS011;32377;52.182;5.398;2022-07-23T15:23:27;4.35;;;1.80;;
46651;SDS011;32377;52.182;5.398;2022-07-23T15:25:54;4.75;;;1.80;;
46651;SDS011;32377;52.182;5.398;2022-07-23T15:28:20;4.25;;;1.63;;
46651;SDS011;32377;52.182;5.398;2022-07-23T15:30:46;3.90;;;2.15;;
46651;SDS011;32377;52.182;5.398;2022-07-23T15:33:12;5.28;;;2.13;;